NORTHEAST SUFFOLK  -  Winter Weather Advisory Winter Weather Advisory     Winter Weather Advisory Winter Weather Advisory        NORTHERN NASSAU  -  Winter Weather Advisory Winter Weather Advisory        NORTHWEST SUFFOLK  -  Winter Weather Advisory Winter Weather Advisory     Winter Weather Advisory Winter Weather Advisory        SOUTHEAST SUFFOLK  -  Winter Weather Advisory Winter Weather Advisory     Winter Weather Advisory Winter Weather Advisory        SOUTHERN NASSAU  -  Winter Weather Advisory Winter Weather Advisory        SOUTHWEST SUFFOLK  -  Winter Weather Advisory Winter Weather Advisory     Winter Weather Advisory Winter Weather Advisory      

Active alerts

Northern Nassau
  Details for Northern Nassau Winter Weather Advisory
Southern Nassau
  Details for Southern Nassau Winter Weather Advisory
Northwest Suffolk
  Details for Northwest Suffolk Winter Weather Advisory  +1 additional alert
Southwest Suffolk
  Details for Southwest Suffolk Winter Weather Advisory  +1 additional alert
Northeast Suffolk
  Details for Northeast Suffolk Winter Weather Advisory  +1 additional alert
Southeast Suffolk
  Details for Southeast Suffolk Winter Weather Advisory  +1 additional alert


WXM80 ListenWXM80 Stop

You find our weather info also at:

UK Metoffice

WeatherCloud

Weather Underground

Northeastern Weather Network

AWEKAS

Citizen Weather Observer Program (CWOP)

HAMweather, WeatherForYou, PWS Weather


Weather Underground History page Text

Daily Summary for January 18, 2016 Units:  English    Metric   Both
« Previous Day
Next Day »
Daily Weekly Monthly Yearly Custom
  High: Low: Average:
Temperature: 31.7 °F 20.7 °F 26.2 °F
Dew Point: 28.8 °F 6.3 °F 14.3 °F
Humidity: 92 % 42 % 62 %
Wind Speed: 15.7 mph 0.0 mph 7.9 mph
Wind Gust: 28.8 mph - -
Wind:- - West
Pressure: 29.92 in 29.64 in -
Precipitation: 0.00 in    
Historical Graphs
 
 
Tabular Data for January 18, 2016
Time Temperature Dew Point Pressure Wind Wind Speed Wind Gust Humidity Rainfall Rate (Hourly)
00:03 31.1 °F 28.5 °F 29.66 in West 2.1 mph 3.5 mph 90 % 0.00 in
00:08 31.0 °F 28.4 °F 29.65 in WNW 4.1 mph 6.9 mph 90 % 0.00 in
00:18 30.8 °F 28.2 °F 29.65 in West 0.5 mph 2.3 mph 90 % 0.00 in
00:23 30.8 °F 28.2 °F 29.65 in West 0.2 mph 2.0 mph 90 % 0.00 in
00:28 30.7 °F 28.1 °F 29.64 in West 0.2 mph 4.0 mph 90 % 0.00 in
00:33 30.6 °F 28.0 °F 29.65 in West 2.1 mph 3.0 mph 90 % 0.00 in
00:38 30.5 °F 27.6 °F 29.64 in West 0.5 mph 2.3 mph 89 % 0.00 in
00:48 30.4 °F 27.8 °F 29.64 in Calm   2.3 mph 90 % 0.00 in
00:54 30.4 °F 28.1 °F 29.64 in West 0.8 mph 3.5 mph 91 % 0.00 in
00:59 30.4 °F 28.1 °F 29.64 in WSW 0.5 mph 3.5 mph 91 % 0.00 in
01:04 30.5 °F 28.2 °F 29.65 in WNW 1.6 mph 4.6 mph 91 % 0.00 in
01:09 30.7 °F 28.7 °F 29.65 in WSW 3.5 mph 8.0 mph 92 % 0.00 in
01:14 30.8 °F 28.8 °F 29.64 in WSW 3.4 mph 5.8 mph 92 % 0.00 in
01:19 30.9 °F 28.6 °F 29.64 in SW 1.4 mph 2.3 mph 91 % 0.00 in
01:24 31.0 °F 28.7 °F 29.65 in SSW 1.7 mph 3.5 mph 91 % 0.00 in
01:29 31.0 °F 28.7 °F 29.65 in SW 0.7 mph 2.0 mph 91 % 0.00 in
01:34 31.1 °F 28.8 °F 29.65 in WNW 3.6 mph 6.9 mph 91 % 0.00 in
01:39 31.1 °F 28.8 °F 29.65 in WNW 0.6 mph 3.5 mph 91 % 0.00 in
01:45 31.1 °F 28.8 °F 29.65 in WSW 1.3 mph 3.5 mph 91 % 0.00 in
01:50 31.2 °F 28.6 °F 29.65 in SW 2.1 mph 4.0 mph 90 % 0.00 in
01:55 31.1 °F 28.5 °F 29.65 in SSW 2.2 mph 5.8 mph 90 % 0.00 in
02:00 31.1 °F 28.5 °F 29.65 in SW 2.8 mph 5.8 mph 90 % 0.00 in
02:05 31.1 °F 28.2 °F 29.65 in SSW 2.9 mph 4.6 mph 89 % 0.00 in
02:10 30.9 °F 28.0 °F 29.65 in SSW 4.3 mph 6.9 mph 89 % 0.00 in
02:15 30.8 °F 27.9 °F 29.65 in SW 2.4 mph 5.0 mph 89 % 0.00 in
02:20 30.7 °F 27.8 °F 29.65 in SW 3.3 mph 4.0 mph 89 % 0.00 in
02:25 30.6 °F 27.5 °F 29.65 in SW 3.8 mph 5.0 mph 88 % 0.00 in
02:30 30.4 °F 27.3 °F 29.65 in SW 3.9 mph 6.9 mph 88 % 0.00 in
02:36 30.2 °F 27.3 °F 29.65 in WSW 1.7 mph 4.6 mph 89 % 0.00 in
02:41 30.1 °F 27.3 °F 29.65 in SW 1.3 mph 5.8 mph 89 % 0.00 in
02:46 30.0 °F 27.2 °F 29.65 in WSW 2.5 mph 4.0 mph 89 % 0.00 in
02:51 29.9 °F 27.1 °F 29.65 in SW 4.0 mph 7.0 mph 89 % 0.00 in
02:56 29.8 °F 27.0 °F 29.65 in WSW 3.9 mph 5.8 mph 89 % 0.00 in
03:01 29.7 °F 26.9 °F 29.65 in SW 2.3 mph 3.5 mph 89 % 0.00 in
03:06 29.6 °F 26.8 °F 29.64 in SW 0.8 mph 3.5 mph 89 % 0.00 in
03:11 29.6 °F 26.8 °F 29.64 in WSW 0.4 mph 2.0 mph 89 % 0.00 in
03:16 29.5 °F 26.7 °F 29.64 in WNW 2.5 mph 2.5 mph 89 % 0.00 in
03:21 29.6 °F 27.0 °F 29.64 in West 4.8 mph 5.0 mph 90 % 0.00 in
03:27 29.9 °F 27.6 °F 29.64 in West 5.7 mph 5.7 mph 91 % 0.00 in
03:32 30.2 °F 27.9 °F 29.64 in WSW 2.9 mph 10.4 mph 91 % 0.00 in
03:37 30.5 °F 27.9 °F 29.64 in West 5.2 mph 9.0 mph 90 % 0.00 in
03:42 30.8 °F 27.9 °F 29.64 in NW 7.5 mph 11.5 mph 89 % 0.00 in
03:47 31.1 °F 28.2 °F 29.64 in WSW 6.7 mph 10.4 mph 89 % 0.00 in
03:52 31.2 °F 28.1 °F 29.64 in West 7.0 mph 11.5 mph 88 % 0.00 in
03:57 31.3 °F 27.9 °F 29.64 in SE 6.6 mph 9.2 mph 87 % 0.00 in
04:02 31.4 °F 28.0 °F 29.64 in WNW 8.9 mph 12.7 mph 87 % 0.00 in
04:07 31.5 °F 27.8 °F 29.65 in West 6.7 mph 10.4 mph 86 % 0.00 in
04:18 31.7 °F 27.7 °F 29.65 in West 11.9 mph 19.6 mph 85 % 0.00 in
04:23 31.7 °F 27.1 °F 29.66 in NW 15.7 mph 25.3 mph 83 % 0.00 in
04:33 31.2 °F 25.1 °F 29.66 in NE 4.9 mph 11.5 mph 78 % 0.00 in
04:38 31.0 °F 24.6 °F 29.65 in WSW 5.0 mph 16.1 mph 77 % 0.00 in
04:43 30.8 °F 24.1 °F 29.65 in SW 7.9 mph 19.6 mph 76 % 0.00 in
04:48 30.7 °F 24.0 °F 29.65 in WSW 8.6 mph 19.6 mph 76 % 0.00 in
04:53 30.6 °F 23.9 °F 29.65 in WSW 6.1 mph 11.5 mph 76 % 0.00 in
04:58 30.5 °F 24.1 °F 29.66 in SW 5.2 mph 15.0 mph 77 % 0.00 in
05:04 30.3 °F 23.6 °F 29.66 in WSW 9.0 mph 18.4 mph 76 % 0.00 in
05:09 30.2 °F 22.3 °F 29.66 in West 11.2 mph 18.4 mph 72 % 0.00 in
05:14 30.1 °F 21.5 °F 29.66 in WSW 9.3 mph 23.0 mph 70 % 0.00 in
05:19 30.0 °F 21.7 °F 29.66 in WSW 6.5 mph 9.0 mph 71 % 0.00 in
05:24 29.9 °F 21.6 °F 29.67 in WNW 5.1 mph 13.0 mph 71 % 0.00 in
05:29 29.9 °F 21.0 °F 29.66 in SW 10.3 mph 18.4 mph 69 % 0.00 in
05:34 29.7 °F 17.5 °F 29.67 in WSW 5.8 mph 16.1 mph 60 % 0.00 in
05:39 29.6 °F 16.6 °F 29.67 in WNW 5.7 mph 12.7 mph 58 % 0.00 in
05:44 29.4 °F 15.6 °F 29.68 in WSW 8.9 mph 11.5 mph 56 % 0.00 in
05:55 29.2 °F 14.6 °F 29.68 in WSW 7.7 mph 16.1 mph 54 % 0.00 in
06:00 29.1 °F 14.9 °F 29.67 in WNW 8.5 mph 11.5 mph 55 % 0.00 in
06:05 29.0 °F 15.2 °F 29.68 in SW 11.5 mph 19.6 mph 56 % 0.00 in
06:10 28.9 °F 14.7 °F 29.68 in WSW 7.3 mph 17.0 mph 55 % 0.00 in
06:15 28.9 °F 15.6 °F 29.68 in NW 6.4 mph 16.1 mph 57 % 0.00 in
06:20 28.8 °F 15.5 °F 29.69 in WNW 8.6 mph 17.3 mph 57 % 0.00 in
06:30 28.5 °F 16.4 °F 29.70 in WNW 11.4 mph 24.2 mph 60 % 0.00 in
06:35 28.3 °F 19.1 °F 29.71 in NW 11.3 mph 22.0 mph 68 % 0.00 in
06:40 27.7 °F 20.8 °F 29.71 in WNW 10.9 mph 18.4 mph 75 % 0.00 in
06:46 26.9 °F 19.7 °F 29.72 in WNW 14.2 mph 20.7 mph 74 % 0.00 in
06:51 26.2 °F 18.1 °F 29.73 in NW 8.8 mph 15.0 mph 71 % 0.00 in
07:01 25.5 °F 17.1 °F 29.74 in North 11.3 mph 20.7 mph 70 % 0.00 in
07:06 25.0 °F 16.3 °F 29.74 in NW 11.4 mph 19.6 mph 69 % 0.00 in
07:11 24.8 °F 15.7 °F 29.74 in WNW 12.3 mph 23.0 mph 68 % 0.00 in
07:16 24.7 °F 15.6 °F 29.75 in NW 7.4 mph 16.1 mph 68 % 0.00 in
07:21 24.6 °F 15.5 °F 29.75 in WSW 10.4 mph 19.6 mph 68 % 0.00 in
07:26 24.6 °F 14.1 °F 29.75 in North 10.9 mph 16.1 mph 64 % 0.00 in
07:31 24.4 °F 13.2 °F 29.75 in NW 9.4 mph 19.6 mph 62 % 0.00 in
07:37 24.3 °F 13.5 °F 29.74 in NW 8.7 mph 13.8 mph 63 % 0.00 in
07:42 24.4 °F 13.6 °F 29.75 in WNW 5.8 mph 18.4 mph 63 % 0.00 in
07:47 24.4 °F 12.5 °F 29.75 in WNW 7.3 mph 19.6 mph 60 % 0.00 in
07:52 24.4 °F 13.2 °F 29.75 in WSW 10.4 mph 16.1 mph 62 % 0.00 in
07:57 24.4 °F 12.1 °F 29.75 in NNW 6.6 mph 15.0 mph 59 % 0.00 in
08:07 24.4 °F 12.9 °F 29.75 in NW 8.9 mph 15.0 mph 61 % 0.00 in
08:12 24.2 °F 11.9 °F 29.75 in West 9.3 mph 20.0 mph 59 % 0.00 in
08:17 24.0 °F 11.7 °F 29.76 in WNW 9.4 mph 19.6 mph 59 % 0.00 in
08:22 23.9 °F 12.0 °F 29.76 in West 13.8 mph 22.0 mph 60 % 0.00 in
08:28 23.9 °F 12.4 °F 29.77 in WSW 6.4 mph 11.5 mph 61 % 0.00 in
08:33 23.9 °F 12.4 °F 29.77 in West 8.4 mph 11.5 mph 61 % 0.00 in
08:38 23.8 °F 12.7 °F 29.77 in WNW 8.8 mph 13.8 mph 62 % 0.00 in
08:43 23.8 °F 11.9 °F 29.78 in West 11.9 mph 19.6 mph 60 % 0.00 in
08:48 23.8 °F 11.9 °F 29.78 in WNW 8.5 mph 17.3 mph 60 % 0.00 in
08:53 23.9 °F 12.8 °F 29.78 in NW 8.7 mph 19.6 mph 62 % 0.00 in
08:58 24.1 °F 12.6 °F 29.78 in WNW 9.1 mph 18.4 mph 61 % 0.00 in
09:03 24.2 °F 13.0 °F 29.79 in WNW 7.1 mph 18.0 mph 62 % 0.00 in
09:08 24.3 °F 12.8 °F 29.78 in WNW 9.2 mph 17.0 mph 61 % 0.00 in
09:13 24.2 °F 11.9 °F 29.78 in North 8.7 mph 14.0 mph 59 % 0.00 in
09:19 24.3 °F 13.1 °F 29.78 in WNW 8.2 mph 10.4 mph 62 % 0.00 in
09:24 24.5 °F 13.0 °F 29.79 in WNW 6.8 mph 16.0 mph 61 % 0.00 in
09:29 24.6 °F 12.7 °F 29.79 in WNW 9.1 mph 12.7 mph 60 % 0.00 in
09:34 24.7 °F 12.8 °F 29.79 in West 8.9 mph 12.7 mph 60 % 0.00 in
09:39 24.8 °F 13.6 °F 29.78 in West 8.5 mph 14.0 mph 62 % 0.00 in
09:44 25.0 °F 13.1 °F 29.79 in West 6.7 mph 12.7 mph 60 % 0.00 in
09:49 25.2 °F 13.2 °F 29.79 in ENE 5.9 mph 19.6 mph 60 % 0.00 in
09:54 25.1 °F 12.8 °F 29.79 in West 8.0 mph 12.7 mph 59 % 0.00 in
10:04 25.4 °F 13.8 °F 29.79 in WNW 7.2 mph 11.5 mph 61 % 0.00 in
10:10 25.6 °F 14.0 °F 29.79 in NW 7.8 mph 18.4 mph 61 % 0.00 in
10:15 25.7 °F 13.7 °F 29.80 in WSW 6.7 mph 11.5 mph 60 % 0.00 in
10:20 26.0 °F 13.6 °F 29.80 in WNW 6.1 mph 15.0 mph 59 % 0.00 in
10:25 26.2 °F 13.4 °F 29.79 in NW 10.4 mph 19.6 mph 58 % 0.00 in
10:30 26.2 °F 13.0 °F 29.79 in West 8.6 mph 12.7 mph 57 % 0.00 in
10:35 26.2 °F 13.4 °F 29.79 in WNW 7.3 mph 16.0 mph 58 % 0.00 in
10:40 26.3 °F 13.9 °F 29.79 in NW 7.2 mph 11.5 mph 59 % 0.00 in
10:45 26.3 °F 13.1 °F 29.79 in West 9.1 mph 17.3 mph 57 % 0.00 in
10:50 26.5 °F 13.7 °F 29.79 in West 8.1 mph 21.0 mph 58 % 0.00 in
10:55 26.5 °F 13.3 °F 29.79 in NW 10.2 mph 11.5 mph 57 % 0.00 in
11:01 26.6 °F 13.4 °F 29.79 in West 8.6 mph 16.0 mph 57 % 0.00 in
11:06 26.6 °F 13.0 °F 29.79 in NW 5.2 mph 13.8 mph 56 % 0.00 in
11:11 26.7 °F 13.1 °F 29.79 in WNW 8.8 mph 16.1 mph 56 % 0.00 in
11:16 26.7 °F 13.5 °F 29.79 in WNW 7.5 mph 15.0 mph 57 % 0.00 in
11:21 26.6 °F 13.0 °F 29.78 in North 10.6 mph 17.3 mph 56 % 0.00 in
11:26 26.5 °F 12.1 °F 29.79 in WNW 9.7 mph 13.8 mph 54 % 0.00 in
11:31 26.4 °F 12.0 °F 29.78 in NW 7.3 mph 13.8 mph 54 % 0.00 in
11:36 26.3 °F 11.5 °F 29.78 in NW 7.4 mph 19.6 mph 53 % 0.00 in
11:41 26.2 °F 12.2 °F 29.78 in NW 8.6 mph 16.1 mph 55 % 0.00 in
11:46 26.1 °F 11.7 °F 29.78 in NW 7.6 mph 19.6 mph 54 % 0.00 in
11:52 26.1 °F 11.7 °F 29.78 in NW 7.4 mph 15.0 mph 54 % 0.00 in
11:57 26.1 °F 12.1 °F 29.78 in North 8.0 mph 15.0 mph 55 % 0.00 in
12:02 26.3 °F 11.9 °F 29.77 in WSW 10.6 mph 16.1 mph 54 % 0.00 in
12:07 26.5 °F 12.1 °F 29.77 in WNW 8.4 mph 13.8 mph 54 % 0.00 in
12:12 26.7 °F 11.4 °F 29.77 in WNW 6.4 mph 11.5 mph 52 % 0.00 in
12:17 26.9 °F 11.6 °F 29.77 in WSW 5.9 mph 11.5 mph 52 % 0.00 in
12:22 27.2 °F 12.3 °F 29.77 in WNW 6.3 mph 12.0 mph 53 % 0.00 in
12:27 27.6 °F 13.1 °F 29.77 in SW 10.4 mph 16.0 mph 54 % 0.00 in
12:32 27.9 °F 12.1 °F 29.76 in SW 10.1 mph 18.4 mph 51 % 0.00 in
12:37 27.8 °F 11.1 °F 29.77 in NW 9.5 mph 20.7 mph 49 % 0.00 in
12:43 27.7 °F 11.5 °F 29.76 in WNW 9.1 mph 15.0 mph 50 % 0.00 in
12:48 27.8 °F 12.0 °F 29.76 in NNW 15.6 mph 24.2 mph 51 % 0.00 in
12:53 27.8 °F 10.6 °F 29.76 in NW 13.8 mph 20.7 mph 48 % 0.00 in
12:58 27.6 °F 10.4 °F 29.76 in WSW 9.7 mph 15.0 mph 48 % 0.00 in
13:03 27.6 °F 10.9 °F 29.76 in WNW 13.2 mph 19.0 mph 49 % 0.00 in
13:08 27.7 °F 11.0 °F 29.76 in WSW 6.7 mph 15.0 mph 49 % 0.00 in
13:13 27.7 °F 10.1 °F 29.76 in West 12.7 mph 25.0 mph 47 % 0.00 in
13:23 28.1 °F 11.4 °F 29.75 in NNW 12.5 mph 19.6 mph 49 % 0.00 in
13:28 28.1 °F 9.5 °F 29.76 in WSW 13.0 mph 13.8 mph 45 % 0.00 in
13:34 27.8 °F 9.2 °F 29.76 in SW 11.0 mph 17.0 mph 45 % 0.00 in
13:39 27.7 °F 9.1 °F 29.75 in NW 7.2 mph 22.0 mph 45 % 0.00 in
13:44 27.6 °F 9.5 °F 29.77 in WNW 6.5 mph 13.0 mph 46 % 0.00 in
13:49 27.6 °F 9.0 °F 29.76 in WSW 7.2 mph 18.0 mph 45 % 0.00 in
13:54 27.6 °F 9.0 °F 29.76 in WNW 9.8 mph 19.6 mph 45 % 0.00 in
14:04 28.1 °F 9.5 °F 29.76 in WNW 9.4 mph 15.0 mph 45 % 0.00 in
14:09 28.2 °F 9.0 °F 29.76 in WSW 9.9 mph 20.7 mph 44 % 0.00 in
14:14 28.0 °F 9.9 °F 29.76 in NW 5.7 mph 11.5 mph 46 % 0.00 in
14:19 27.8 °F 7.6 °F 29.77 in NW 8.5 mph 26.5 mph 42 % 0.00 in
14:25 27.6 °F 8.5 °F 29.77 in WNW 9.2 mph 19.6 mph 44 % 0.00 in
14:30 27.4 °F 7.8 °F 29.77 in WNW 9.0 mph 16.1 mph 43 % 0.00 in
14:35 27.4 °F 8.3 °F 29.77 in WNW 8.6 mph 19.6 mph 44 % 0.00 in
14:40 27.2 °F 8.1 °F 29.77 in WNW 10.8 mph 19.6 mph 44 % 0.00 in
14:45 27.0 °F 8.9 °F 29.77 in NW 11.1 mph 24.2 mph 46 % 0.00 in
14:50 26.8 °F 8.3 °F 29.77 in WNW 12.2 mph 19.6 mph 45 % 0.00 in
14:55 26.8 °F 8.8 °F 29.77 in WNW 7.2 mph 11.5 mph 46 % 0.00 in
15:00 26.7 °F 8.2 °F 29.78 in WSW 9.3 mph 18.4 mph 45 % 0.00 in
15:10 26.6 °F 7.6 °F 29.78 in NW 8.1 mph 15.0 mph 44 % 0.00 in
15:16 26.5 °F 9.0 °F 29.78 in WNW 11.0 mph 17.3 mph 47 % 0.00 in
15:21 26.5 °F 8.5 °F 29.78 in WSW 7.3 mph 15.0 mph 46 % 0.00 in
15:26 26.5 °F 8.5 °F 29.78 in West 7.4 mph 26.5 mph 46 % 0.00 in
15:31 26.5 °F 8.0 °F 29.79 in West 8.0 mph 11.5 mph 45 % 0.00 in
15:36 26.5 °F 8.5 °F 29.78 in NW 11.5 mph 19.6 mph 46 % 0.00 in
15:41 26.5 °F 9.4 °F 29.79 in WNW 9.2 mph 12.7 mph 48 % 0.00 in
15:46 26.5 °F 9.0 °F 29.79 in West 7.4 mph 16.1 mph 47 % 0.00 in
15:51 26.6 °F 9.5 °F 29.80 in WNW 10.9 mph 17.3 mph 48 % 0.00 in
15:56 26.5 °F 7.5 °F 29.80 in WNW 13.1 mph 20.7 mph 44 % 0.00 in
16:01 26.4 °F 7.9 °F 29.81 in NW 8.7 mph 17.3 mph 45 % 0.00 in
16:07 26.3 °F 7.8 °F 29.81 in WNW 10.1 mph 18.4 mph 45 % 0.00 in
16:12 26.1 °F 7.6 °F 29.81 in NW 13.6 mph 20.7 mph 45 % 0.00 in
16:17 26.1 °F 6.6 °F 29.81 in SW 9.1 mph 18.4 mph 43 % 0.00 in
16:22 26.0 °F 8.0 °F 29.81 in SW 6.0 mph 16.1 mph 46 % 0.00 in
16:27 25.8 °F 7.8 °F 29.80 in WNW 3.9 mph 11.0 mph 46 % 0.00 in
16:32 25.6 °F 7.7 °F 29.81 in WNW 4.6 mph 15.0 mph 46 % 0.00 in
16:37 25.5 °F 8.5 °F 29.81 in SW 5.9 mph 15.0 mph 48 % 0.00 in
16:42 25.4 °F 7.0 °F 29.81 in WSW 10.5 mph 19.6 mph 45 % 0.00 in
16:47 25.3 °F 7.4 °F 29.81 in NW 6.2 mph 13.0 mph 46 % 0.00 in
16:58 25.3 °F 7.4 °F 29.82 in WNW 10.3 mph 15.0 mph 46 % 0.00 in
17:03 25.3 °F 7.4 °F 29.82 in NW 12.0 mph 19.6 mph 46 % 0.00 in
17:08 25.2 °F 6.3 °F 29.83 in WNW 8.3 mph 16.1 mph 44 % 0.00 in
17:13 25.1 °F 7.2 °F 29.83 in WNW 7.8 mph 18.4 mph 46 % 0.00 in
17:18 24.9 °F 6.5 °F 29.83 in WNW 9.5 mph 16.1 mph 45 % 0.00 in
17:23 24.8 °F 6.4 °F 29.83 in West 6.8 mph 15.0 mph 45 % 0.00 in
17:28 24.7 °F 7.3 °F 29.84 in West 8.9 mph 13.8 mph 47 % 0.00 in
17:33 24.6 °F 7.2 °F 29.84 in WNW 10.7 mph 17.0 mph 47 % 0.00 in
17:38 24.5 °F 6.6 °F 29.84 in WSW 10.6 mph 26.0 mph 46 % 0.00 in
17:44 24.5 °F 6.6 °F 29.84 in WSW 10.9 mph 15.0 mph 46 % 0.00 in
17:49 24.4 °F 7.5 °F 29.84 in WSW 7.7 mph 15.0 mph 48 % 0.00 in
17:54 24.4 °F 6.6 °F 29.85 in WNW 8.1 mph 17.3 mph 46 % 0.00 in
17:59 24.4 °F 8.4 °F 29.85 in NW 7.1 mph 16.1 mph 50 % 0.00 in
18:04 24.4 °F 7.5 °F 29.85 in ENE 6.5 mph 13.8 mph 48 % 0.00 in
18:09 24.4 °F 7.5 °F 29.85 in West 9.6 mph 15.0 mph 48 % 0.00 in
18:14 24.3 °F 7.4 °F 29.86 in WSW 8.5 mph 11.5 mph 48 % 0.00 in
18:19 24.2 °F 7.8 °F 29.86 in NNW 7.4 mph 21.9 mph 49 % 0.00 in
18:24 24.1 °F 8.1 °F 29.86 in SW 12.8 mph 23.0 mph 50 % 0.00 in
18:29 24.0 °F 8.9 °F 29.86 in NW 10.6 mph 15.0 mph 52 % 0.00 in
18:35 23.9 °F 9.6 °F 29.87 in WSW 7.9 mph 14.0 mph 54 % 0.00 in
18:40 23.9 °F 9.6 °F 29.87 in WNW 8.8 mph 17.3 mph 54 % 0.00 in
18:45 23.8 °F 9.6 °F 29.87 in WSW 8.7 mph 25.3 mph 54 % 0.00 in
18:50 23.7 °F 9.5 °F 29.88 in WSW 6.3 mph 16.0 mph 54 % 0.00 in
18:55 23.6 °F 9.4 °F 29.88 in WSW 14.5 mph 26.0 mph 54 % 0.00 in
19:00 23.5 °F 10.1 °F 29.88 in SW 9.7 mph 13.0 mph 56 % 0.00 in
19:10 23.3 °F 9.9 °F 29.88 in WSW 9.2 mph 17.3 mph 56 % 0.00 in
19:15 23.3 °F 10.3 °F 29.89 in West 10.7 mph 16.1 mph 57 % 0.00 in
19:20 23.2 °F 9.8 °F 29.88 in WNW 6.7 mph 16.1 mph 56 % 0.00 in
19:26 23.1 °F 10.1 °F 29.88 in NW 6.9 mph 12.7 mph 57 % 0.00 in
19:31 23.1 °F 10.1 °F 29.88 in SW 8.9 mph 21.9 mph 57 % 0.00 in
19:36 23.0 °F 9.2 °F 29.89 in WNW 11.8 mph 25.3 mph 55 % 0.00 in
19:41 22.9 °F 9.5 °F 29.89 in WSW 14.2 mph 21.9 mph 56 % 0.00 in
19:46 22.9 °F 9.5 °F 29.89 in WNW 10.2 mph 19.6 mph 56 % 0.00 in
19:51 22.8 °F 9.8 °F 29.89 in WSW 12.4 mph 20.7 mph 57 % 0.00 in
19:56 22.7 °F 9.7 °F 29.90 in WNW 9.0 mph 12.7 mph 57 % 0.00 in
20:01 22.6 °F 9.6 °F 29.90 in WSW 9.3 mph 21.9 mph 57 % 0.00 in
20:06 22.5 °F 9.5 °F 29.90 in WNW 8.6 mph 16.1 mph 57 % 0.00 in
20:11 22.5 °F 9.5 °F 29.90 in WSW 7.6 mph 16.1 mph 57 % 0.00 in
20:17 22.5 °F 9.5 °F 29.90 in West 10.0 mph 20.7 mph 57 % 0.00 in
20:22 22.5 °F 9.9 °F 29.90 in West 9.5 mph 11.0 mph 58 % 0.00 in
20:27 22.5 °F 9.5 °F 29.90 in West 6.7 mph 11.5 mph 57 % 0.00 in
20:32 22.4 °F 9.1 °F 29.90 in West 10.4 mph 16.1 mph 56 % 0.00 in
20:37 22.4 °F 9.4 °F 29.91 in SW 8.4 mph 13.0 mph 57 % 0.00 in
20:42 22.4 °F 9.4 °F 29.91 in WSW 9.2 mph 12.7 mph 57 % 0.00 in
20:47 22.4 °F 9.1 °F 29.91 in WSW 9.0 mph 12.0 mph 56 % 0.00 in
20:52 22.4 °F 8.7 °F 29.91 in WSW 9.7 mph 20.7 mph 55 % 0.00 in
20:57 22.3 °F 8.2 °F 29.91 in West 5.1 mph 13.8 mph 54 % 0.00 in
21:02 22.4 °F 8.7 °F 29.91 in WNW 6.1 mph 11.5 mph 55 % 0.00 in
21:08 22.4 °F 9.1 °F 29.91 in NW 7.3 mph 12.7 mph 56 % 0.00 in
21:13 22.5 °F 8.7 °F 29.91 in SW 7.6 mph 15.0 mph 55 % 0.00 in
21:18 22.5 °F 8.3 °F 29.91 in West 8.3 mph 15.0 mph 54 % 0.00 in
21:23 22.3 °F 8.6 °F 29.90 in WSW 10.4 mph 19.0 mph 55 % 0.00 in
21:28 22.2 °F 8.1 °F 29.91 in SW 8.9 mph 13.0 mph 54 % 0.00 in
21:33 22.1 °F 8.4 °F 29.91 in West 6.8 mph 13.8 mph 55 % 0.00 in
21:38 22.1 °F 8.4 °F 29.91 in SW 9.8 mph 17.3 mph 55 % 0.00 in
21:43 22.0 °F 7.9 °F 29.91 in West 10.6 mph 21.9 mph 54 % 0.00 in
21:48 22.0 °F 8.7 °F 29.91 in WNW 7.4 mph 12.7 mph 56 % 0.00 in
21:59 21.9 °F 8.2 °F 29.92 in West 7.1 mph 16.1 mph 55 % 0.00 in
22:04 21.8 °F 7.7 °F 29.92 in SW 10.3 mph 28.8 mph 54 % 0.00 in
22:09 21.7 °F 7.6 °F 29.92 in WNW 3.7 mph 20.7 mph 54 % 0.00 in
22:14 21.7 °F 8.0 °F 29.92 in NW 8.6 mph 19.6 mph 55 % 0.00 in
22:19 21.6 °F 7.9 °F 29.92 in WSW 9.5 mph 18.0 mph 55 % 0.00 in
22:24 21.6 °F 7.9 °F 29.92 in WSW 7.7 mph 11.5 mph 55 % 0.00 in
22:29 21.5 °F 7.8 °F 29.92 in West 13.2 mph 20.0 mph 55 % 0.00 in
22:34 21.4 °F 8.1 °F 29.92 in SW 11.9 mph 21.0 mph 56 % 0.00 in
22:39 21.3 °F 8.0 °F 29.92 in NW 10.1 mph 19.6 mph 56 % 0.00 in
22:50 21.2 °F 8.3 °F 29.92 in WSW 6.7 mph 19.6 mph 57 % 0.00 in
22:55 21.1 °F 8.2 °F 29.91 in West 13.0 mph 17.3 mph 57 % 0.00 in
23:00 21.1 °F 8.2 °F 29.92 in SW 9.9 mph 20.7 mph 57 % 0.00 in
23:05 21.1 °F 8.6 °F 29.91 in NW 7.7 mph 25.3 mph 58 % 0.00 in
23:10 21.1 °F 8.2 °F 29.91 in West 9.5 mph 16.1 mph 57 % 0.00 in
23:15 21.0 °F 8.1 °F 29.92 in WSW 9.4 mph 13.8 mph 57 % 0.00 in
23:20 20.9 °F 8.4 °F 29.92 in WNW 12.1 mph 22.0 mph 58 % 0.00 in
23:25 20.9 °F 8.0 °F 29.92 in SW 10.1 mph 18.4 mph 57 % 0.00 in
23:30 20.9 °F 8.4 °F 29.92 in WSW 9.2 mph 16.1 mph 58 % 0.00 in
23:35 20.9 °F 8.8 °F 29.92 in WSW 6.9 mph 12.7 mph 59 % 0.00 in
23:41 20.9 °F 9.2 °F 29.92 in WNW 6.9 mph 13.8 mph 60 % 0.00 in
23:46 20.8 °F 8.7 °F 29.92 in SW 9.3 mph 18.4 mph 59 % 0.00 in
23:51 20.7 °F 8.6 °F 29.92 in WNW 11.7 mph 19.6 mph 59 % 0.00 in
23:56 20.7 °F 8.6 °F 29.92 in West 10.2 mph 21.9 mph 59 % 0.00 in
Crab Meadow Weather
Compliments of Weather Underground - 3 mb

Script developed by  Jim McMurry - jmcmurry@mwt.net Adapted for the template by  Wim van der Kuil - Leuven-Template.eu

Astronomy: The gravity on Jupiter is 2.6 times that of the Earth.